createdAt,value
2019-05-22T00:01:01.744Z,98139.23
2019-05-22T00:03:36.156Z,98138.41
2019-05-22T00:06:08.974Z,98135.05
2019-05-22T00:08:40.675Z,98129.36
2019-05-22T00:11:12.986Z,98130.23
2019-05-22T00:13:45.474Z,98124.98
2019-05-22T00:16:16.169Z,98120.48
2019-05-22T00:18:47.474Z,98118.05
2019-05-22T00:21:20.868Z,98121.06
2019-05-22T00:23:55.106Z,98115.75
2019-05-22T00:26:26.796Z,98118.37
2019-05-22T00:28:57.731Z,98115.75
2019-05-22T00:31:30.114Z,98120.52
2019-05-22T00:34:01.176Z,98131.84
2019-05-22T00:36:33.212Z,98129.72
2019-05-22T00:39:06.173Z,98131.52
2019-05-22T00:41:38.468Z,98129.82
2019-05-22T00:44:10.896Z,98133.51
2019-05-22T00:46:43.738Z,98137.47
2019-05-22T00:49:16.556Z,98138.94
2019-05-22T00:52:08.747Z,98137.20
2019-05-22T00:54:58.677Z,98135.13
2019-05-22T00:57:43.827Z,98132.94
2019-05-22T01:00:24.632Z,98135.60
2019-05-22T01:02:56.390Z,98140.91
2019-05-22T01:05:29.617Z,98144.51
2019-05-22T01:08:02.142Z,98144.95
2019-05-22T01:10:33.249Z,98146.26
2019-05-22T01:13:05.496Z,98147.61
2019-05-22T01:15:38.373Z,98155.05
2019-05-22T01:18:15.223Z,98148.14
2019-05-22T01:20:49.515Z,98158.70
2019-05-22T01:23:21.632Z,98162.19
2019-05-22T01:25:52.676Z,98156.98
2019-05-22T01:28:24.749Z,98162.22
2019-05-22T01:31:02.262Z,98160.02
2019-05-22T01:33:51.909Z,98158.36
2019-05-22T01:36:32.946Z,98158.33
2019-05-22T01:39:33.947Z,98164.05
2019-05-22T01:42:07.826Z,98157.91
2019-05-22T01:44:39.122Z,98153.55
2019-05-22T01:47:20.976Z,98157.44
2019-05-22T01:49:54.416Z,98157.52
2019-05-22T01:52:26.528Z,98155.36
2019-05-22T01:54:58.597Z,98148.39
2019-05-22T01:57:30.866Z,98146.23
2019-05-22T02:00:03.873Z,98148.84
2019-05-22T02:02:35.708Z,98149.70
2019-05-22T02:05:09.717Z,98156.68
2019-05-22T02:07:42.472Z,98154.94
2019-05-22T02:10:21.677Z,98156.27
2019-05-22T02:12:57.497Z,98154.97
2019-05-22T02:15:28.619Z,98156.78
2019-05-22T02:18:00.685Z,98155.42
2019-05-22T02:20:31.507Z,98157.17
2019-05-22T02:23:02.740Z,98157.96
2019-05-22T02:25:34.700Z,98156.22
2019-05-22T02:28:06.289Z,98165.78
2019-05-22T02:30:39.573Z,98167.89
2019-05-22T02:33:11.688Z,98168.83
2019-05-22T02:35:42.599Z,98172.28
2019-05-22T02:38:13.446Z,98170.50
2019-05-22T02:40:45.492Z,98162.22
2019-05-22T02:43:16.438Z,98166.94
2019-05-22T02:45:47.368Z,98165.22
2019-05-22T02:48:18.839Z,98160.00
2019-05-22T02:50:49.990Z,98160.94
2019-05-22T02:53:22.111Z,98166.52
2019-05-22T02:55:53.458Z,98172.08
2019-05-22T02:58:24.507Z,98174.70
2019-05-22T03:01:02.896Z,98171.21
2019-05-22T03:03:35.480Z,98173.42
2019-05-22T03:09:19.861Z,98177.31
2019-05-22T03:12:11.341Z,98176.42
2019-05-22T03:14:43.454Z,98182.03
2019-05-22T03:17:30.732Z,98175.92
2019-05-22T03:19:57.949Z,98175.98
2019-05-22T03:22:34.926Z,98175.98
2019-05-22T03:25:10.183Z,98176.51
2019-05-22T03:27:45.461Z,98184.77
2019-05-22T03:30:32.801Z,98182.50
2019-05-22T03:33:06.174Z,98189.07
2019-05-22T03:35:45.935Z,98189.07
2019-05-22T03:38:19.179Z,98187.72
2019-05-22T03:40:53.334Z,98191.68
2019-05-22T03:43:27.847Z,98193.76
2019-05-22T03:46:01.098Z,98191.23
2019-05-22T03:48:36.523Z,98183.80
2019-05-22T03:53:46.580Z,98171.73
2019-05-22T03:56:20.403Z,98177.00
2019-05-22T03:58:51.416Z,98177.81
2019-05-22T04:01:23.499Z,98182.58
2019-05-22T04:03:53.375Z,98185.20
2019-05-22T04:06:26.110Z,98193.03
2019-05-22T04:08:54.521Z,98194.03
2019-05-22T04:11:32.469Z,98193.73
2019-05-22T04:14:03.809Z,98188.08
2019-05-22T04:19:07.198Z,98191.20
2019-05-22T04:21:36.740Z,98192.11
2019-05-22T04:24:08.189Z,98194.31
2019-05-22T04:26:39.860Z,98202.57
2019-05-22T04:29:11.067Z,98201.74
2019-05-22T04:31:57.402Z,98198.17
2019-05-22T04:34:29.607Z,98202.00
2019-05-22T04:39:33.303Z,98215.41
2019-05-22T04:42:01.880Z,98208.13
2019-05-22T04:44:32.764Z,98211.23
2019-05-22T04:47:04.740Z,98205.52
2019-05-22T04:49:35.545Z,98213.25
2019-05-22T04:52:07.539Z,98211.94
2019-05-22T04:54:38.371Z,98216.61
2019-05-22T04:57:09.349Z,98217.94
2019-05-22T05:02:10.600Z,98228.23
2019-05-22T05:04:40.268Z,98223.83
2019-05-22T05:07:12.416Z,98230.73
2019-05-22T05:09:42.958Z,98230.62
2019-05-22T05:12:13.815Z,98234.56
2019-05-22T05:14:45.315Z,98235.36
2019-05-22T05:17:16.253Z,98238.02
2019-05-22T05:19:47.102Z,98240.16
2019-05-22T05:22:27.890Z,98239.30
2019-05-22T05:24:58.515Z,98234.67
2019-05-22T05:27:31.966Z,98246.67
2019-05-22T05:32:32.553Z,98253.14
2019-05-22T05:35:00.797Z,98246.13
2019-05-22T05:37:31.750Z,98253.80
2019-05-22T05:40:32.544Z,98259.89
2019-05-22T05:43:04.824Z,98259.92
2019-05-22T05:45:33.945Z,98259.19
2019-05-22T05:48:09.026Z,98263.37
2019-05-22T05:50:41.529Z,98258.23
2019-05-22T05:53:12.096Z,98258.67
2019-05-22T05:56:21.375Z,98261.89
2019-05-22T05:58:50.126Z,98257.95
2019-05-22T06:04:04.687Z,98260.00
2019-05-22T06:13:24.446Z,98277.05
2019-05-22T06:15:52.845Z,98280.45
2019-05-22T06:18:43.617Z,98282.86
2019-05-22T06:21:15.007Z,98291.08
2019-05-22T06:24:25.600Z,98285.69
2019-05-22T06:27:29.495Z,98289.78
2019-05-22T06:30:04.175Z,98283.50
2019-05-22T06:33:31.125Z,98283.53
2019-05-22T06:36:07.557Z,98285.25
2019-05-22T06:39:10.285Z,98295.80
2019-05-22T06:42:00.921Z,98292.74
2019-05-22T06:44:35.263Z,98298.84
2019-05-22T06:47:16.030Z,98300.45
2019-05-22T06:49:55.511Z,98297.39
2019-05-22T06:52:26.855Z,98302.41
2019-05-22T06:54:59.177Z,98302.31
2019-05-22T06:57:32.297Z,98303.59
2019-05-22T07:00:23.357Z,98306.38
2019-05-22T07:02:54.314Z,98304.18
2019-05-22T07:05:25.299Z,98308.33
2019-05-22T07:07:56.976Z,98310.22
2019-05-22T07:10:28.623Z,98310.34
2019-05-22T07:15:35.117Z,98309.18
2019-05-22T07:18:07.719Z,98318.70
2019-05-22T07:23:17.975Z,98297.86
2019-05-22T07:25:49.370Z,98313.92
2019-05-22T07:28:22.968Z,98316.01
2019-05-22T07:30:55.375Z,98318.15
2019-05-22T07:33:25.059Z,98325.00
2019-05-22T07:36:09.167Z,98330.45
2019-05-22T07:38:26.350Z,98327.84
2019-05-22T07:40:57.450Z,98333.67
2019-05-22T07:45:59.378Z,98336.38
2019-05-22T07:48:30.045Z,98334.64
2019-05-22T07:51:01.493Z,98332.12
2019-05-22T07:53:33.224Z,98336.14
2019-05-22T07:58:38.867Z,98336.52
2019-05-22T08:01:12.336Z,98339.29
2019-05-22T08:06:16.353Z,98342.43
2019-05-22T08:11:16.137Z,98344.05
2019-05-22T08:13:45.505Z,98348.83
2019-05-22T08:16:17.042Z,98344.44
2019-05-22T08:18:46.166Z,98347.00
2019-05-22T08:21:17.331Z,98357.83
2019-05-22T08:23:48.563Z,98353.66
2019-05-22T08:26:21.581Z,98359.16
2019-05-22T08:28:54.022Z,98362.03
2019-05-22T08:31:25.577Z,98361.08
2019-05-22T08:33:56.747Z,98362.23
2019-05-22T08:38:56.080Z,98370.78
2019-05-22T08:41:35.278Z,98367.78
2019-05-22T08:44:15.929Z,98371.36
2019-05-22T08:46:41.240Z,98372.69
2019-05-22T08:49:14.075Z,98372.69
2019-05-22T08:51:44.778Z,98382.42
2019-05-22T08:54:16.542Z,98383.00
2019-05-22T08:56:50.122Z,98390.47
2019-05-22T08:59:22.144Z,98382.09
2019-05-22T09:01:53.268Z,98393.23
2019-05-22T09:04:23.966Z,98389.82
2019-05-22T09:06:54.803Z,98392.58
2019-05-22T09:09:26.778Z,98399.30
2019-05-22T09:11:57.863Z,98391.31
2019-05-22T09:14:27.553Z,98397.91
2019-05-22T09:16:58.407Z,98395.09
2019-05-22T09:21:56.683Z,98413.81
2019-05-22T09:24:26.791Z,98412.25
2019-05-22T09:26:57.917Z,98417.52
2019-05-22T09:31:55.969Z,98421.31
2019-05-22T09:36:55.249Z,98417.98
2019-05-22T09:39:24.060Z,98424.30
2019-05-22T09:41:56.021Z,98428.02
2019-05-22T09:44:26.826Z,98426.52
2019-05-22T09:46:57.773Z,98424.96
2019-05-22T09:49:29.718Z,98430.71
2019-05-22T09:54:30.689Z,98432.26
2019-05-22T09:59:30.237Z,98445.92
2019-05-22T10:01:58.605Z,98444.61
2019-05-22T10:04:29.602Z,98456.33
2019-05-22T10:06:58.216Z,98453.28
2019-05-22T10:09:29.480Z,98452.34
2019-05-22T10:11:57.742Z,98459.28
2019-05-22T10:14:28.645Z,98455.91
2019-05-22T10:16:56.871Z,98457.54
2019-05-22T10:19:27.718Z,98466.86
2019-05-22T10:21:56.729Z,98465.38
2019-05-22T10:24:27.727Z,98464.78
2019-05-22T10:26:59.000Z,98468.67
2019-05-22T10:29:32.316Z,98467.48
2019-05-22T10:32:03.505Z,98472.78
2019-05-22T10:34:31.978Z,98475.16
2019-05-22T10:37:02.785Z,98472.69
2019-05-22T10:39:32.129Z,98488.69
2019-05-22T10:42:03.276Z,98485.73
2019-05-22T10:47:01.067Z,98496.73
2019-05-22T10:52:00.334Z,98500.26
2019-05-22T10:54:28.526Z,98508.41
2019-05-22T10:56:59.214Z,98516.12
2019-05-22T10:59:27.566Z,98517.78
2019-05-22T11:01:58.398Z,98510.53
2019-05-22T11:04:29.831Z,98516.48
2019-05-22T11:07:01.974Z,98520.30
2019-05-22T11:09:33.240Z,98522.45
2019-05-22T11:12:03.055Z,98527.95
2019-05-22T11:14:37.175Z,98521.53
2019-05-22T11:17:05.493Z,98530.42
2019-05-22T11:19:36.701Z,98526.72
2019-05-22T11:22:09.852Z,98529.73
2019-05-22T11:24:41.271Z,98531.72
2019-05-22T11:27:13.717Z,98521.13
2019-05-22T11:32:15.475Z,98528.94
2019-05-22T11:34:45.025Z,98528.89
2019-05-22T11:37:16.558Z,98528.45
2019-05-22T11:39:45.586Z,98533.73
2019-05-22T11:42:16.807Z,98534.56
2019-05-22T11:44:44.950Z,98537.72
2019-05-22T11:47:16.268Z,98534.09
2019-05-22T11:49:45.297Z,98546.75
2019-05-22T11:52:17.253Z,98545.54
2019-05-22T11:54:48.195Z,98552.16
2019-05-22T11:57:20.128Z,98548.30
2019-05-22T11:59:51.048Z,98542.09
2019-05-22T12:02:20.925Z,98550.12
2019-05-22T12:04:52.543Z,98543.14
2019-05-22T12:07:20.946Z,98548.30
2019-05-22T12:09:51.589Z,98544.17
2019-05-22T12:12:20.477Z,98551.25
2019-05-22T12:14:51.827Z,98547.00
2019-05-22T12:17:36.710Z,98550.35
2019-05-22T12:19:52.797Z,98549.07
2019-05-22T12:22:23.560Z,98546.38
2019-05-22T12:24:54.278Z,98550.38
2019-05-22T12:27:28.375Z,98553.80
2019-05-22T12:29:57.957Z,98556.29
2019-05-22T12:32:31.700Z,98561.51
2019-05-22T12:34:59.956Z,98560.45
2019-05-22T12:37:32.024Z,98561.03
2019-05-22T12:40:00.536Z,98557.47
2019-05-22T12:42:31.661Z,98556.97
2019-05-22T12:45:03.785Z,98559.90
2019-05-22T12:47:35.427Z,98567.79
2019-05-22T12:50:09.294Z,98566.80
2019-05-22T12:52:37.503Z,98565.88
2019-05-22T12:55:09.415Z,98576.00
2019-05-22T12:57:37.700Z,98572.95
2019-05-22T13:00:11.340Z,98566.04
2019-05-22T13:02:42.815Z,98566.89
2019-05-22T13:05:14.600Z,98569.70
2019-05-22T13:07:49.363Z,98576.98
2019-05-22T13:10:18.612Z,98568.98
2019-05-22T13:12:51.117Z,98571.43
2019-05-22T13:15:20.196Z,98578.16
2019-05-22T13:17:53.363Z,98575.33
2019-05-22T13:20:42.087Z,98577.58
2019-05-22T13:22:58.235Z,98573.27
2019-05-22T13:25:37.362Z,98573.42
2019-05-22T13:28:11.732Z,98580.90
2019-05-22T13:35:56.406Z,98583.72
2019-05-22T13:38:27.809Z,98581.20
2019-05-22T13:40:58.797Z,98577.22
2019-05-22T13:43:29.001Z,98585.36
2019-05-22T13:46:01.272Z,98577.02
2019-05-22T13:48:42.940Z,98575.20
2019-05-22T13:51:12.783Z,98571.13
2019-05-22T13:53:45.036Z,98569.81
2019-05-22T13:56:18.546Z,98575.20
2019-05-22T13:58:49.413Z,98585.64
2019-05-22T14:01:23.353Z,98587.07
2019-05-22T14:03:51.866Z,98592.16
2019-05-22T14:06:22.799Z,98602.62
2019-05-22T14:08:51.089Z,98611.44
2019-05-22T14:11:24.307Z,98608.51
2019-05-22T14:13:55.085Z,98621.33
2019-05-22T14:19:01.505Z,98623.74
2019-05-22T14:21:29.795Z,98623.38
2019-05-22T14:24:02.892Z,98628.28
2019-05-22T14:26:34.084Z,98630.77
2019-05-22T14:29:04.778Z,98628.73
2019-05-22T14:31:35.603Z,98631.22
2019-05-22T14:36:38.023Z,98637.02
2019-05-22T14:39:08.437Z,98633.33
2019-05-22T14:44:23.147Z,98634.91
2019-05-22T14:49:22.300Z,98635.72
2019-05-22T14:51:53.438Z,98634.17
2019-05-22T14:54:31.132Z,98635.72
2019-05-22T14:57:03.403Z,98638.61
2019-05-22T14:59:36.598Z,98647.88
2019-05-22T15:02:10.591Z,98640.67
2019-05-22T15:04:41.873Z,98645.10
2019-05-22T15:09:47.780Z,98644.61
2019-05-22T15:12:20.223Z,98654.84
2019-05-22T15:14:51.194Z,98642.84
2019-05-22T15:17:32.587Z,98640.96
2019-05-22T15:20:00.618Z,98632.98
2019-05-22T15:22:37.112Z,98633.02
2019-05-22T15:25:12.055Z,98631.10
2019-05-22T15:27:40.780Z,98633.70
2019-05-22T15:30:13.763Z,98637.11
2019-05-22T15:32:48.517Z,98638.81
2019-05-22T15:35:23.309Z,98635.45
2019-05-22T15:37:55.938Z,98644.02
2019-05-22T15:40:24.312Z,98644.33
2019-05-22T15:43:00.161Z,98634.34
2019-05-22T15:45:32.564Z,98647.78
2019-05-22T15:48:03.822Z,98647.25
2019-05-22T15:50:37.320Z,98648.09
2019-05-22T15:53:09.685Z,98652.41
2019-05-22T15:55:42.877Z,98656.39
2019-05-22T15:58:17.331Z,98652.89
2019-05-22T16:00:47.169Z,98647.92
2019-05-22T16:03:27.372Z,98649.61
2019-05-22T16:05:59.915Z,98655.98
2019-05-22T16:08:29.760Z,98653.23
2019-05-22T16:11:02.255Z,98663.59
2019-05-22T16:13:35.893Z,98653.14
2019-05-22T16:18:46.488Z,98667.80
2019-05-22T16:21:19.759Z,98671.28
2019-05-22T16:23:55.243Z,98674.24
2019-05-22T16:26:28.637Z,98668.56
2019-05-22T16:28:56.903Z,98673.75
2019-05-22T16:31:31.088Z,98682.45
2019-05-22T16:34:05.129Z,98677.15
2019-05-22T16:39:11.332Z,98693.36
2019-05-22T16:41:44.028Z,98701.66
2019-05-22T16:46:57.358Z,98701.30
2019-05-22T16:49:30.199Z,98712.10
2019-05-22T16:54:36.043Z,98727.30
2019-05-22T16:57:10.975Z,98724.69
2019-05-22T16:59:44.741Z,98732.13
2019-05-22T17:02:21.560Z,98733.59
2019-05-22T17:04:50.932Z,98727.94
2019-05-22T17:07:23.397Z,98731.24
2019-05-22T17:09:55.179Z,98731.49
2019-05-22T17:12:28.685Z,98741.00
2019-05-22T17:15:00.532Z,98741.25
2019-05-22T17:17:28.741Z,98741.48
2019-05-22T17:20:04.940Z,98752.48
2019-05-22T17:22:36.937Z,98757.09
2019-05-22T17:27:44.261Z,98766.67
2019-05-22T17:30:25.153Z,98749.14
2019-05-22T17:35:36.873Z,98759.77
2019-05-22T17:38:15.840Z,98764.56
2019-05-22T17:43:16.887Z,98771.32
2019-05-22T17:45:54.611Z,98778.36
2019-05-22T17:50:55.037Z,98770.11
2019-05-22T17:53:25.549Z,98772.07
2019-05-22T17:56:00.108Z,98786.08
2019-05-22T17:58:30.181Z,98784.59
2019-05-22T18:03:40.943Z,98799.59
2019-05-22T18:06:08.141Z,98805.48
2019-05-22T18:08:45.580Z,98807.48
2019-05-22T18:11:20.159Z,98826.00
2019-05-22T18:14:06.006Z,98822.54
2019-05-22T18:19:05.455Z,98827.47
2019-05-22T18:21:37.145Z,98823.11
2019-05-22T18:24:12.343Z,98825.16
2019-05-22T18:26:43.346Z,98830.30
2019-05-22T18:31:42.023Z,98848.63
2019-05-22T18:34:15.072Z,98838.25
2019-05-22T18:36:47.029Z,98858.06
2019-05-22T18:41:44.631Z,98874.65
2019-05-22T18:44:17.892Z,98893.34
2019-05-22T18:46:55.093Z,98900.95
2019-05-22T18:49:29.532Z,98911.05
2019-05-22T18:52:01.672Z,98922.73
2019-05-22T18:57:02.386Z,98929.44
2019-05-22T18:59:35.646Z,98924.19
2019-05-22T19:02:15.857Z,98932.03
2019-05-22T19:04:47.971Z,98921.65
2019-05-22T19:07:23.352Z,98926.22
2019-05-22T19:09:59.975Z,98934.41
2019-05-22T19:12:41.006Z,98943.43
2019-05-22T19:15:16.134Z,98943.09
2019-05-22T19:22:59.251Z,98954.15
2019-05-22T19:25:22.433Z,98948.38
2019-05-22T19:27:56.038Z,98939.69
2019-05-22T19:30:29.206Z,98943.06
2019-05-22T19:35:29.188Z,98931.29
2019-05-22T19:38:02.915Z,98929.47
2019-05-22T19:40:34.782Z,98938.55
2019-05-22T19:45:31.900Z,98928.72
2019-05-22T19:48:08.016Z,98931.38
2019-05-22T19:50:44.871Z,98931.25
2019-05-22T19:53:21.193Z,98923.81
2019-05-22T19:55:56.461Z,98934.92
2019-05-22T19:58:34.397Z,98930.91
2019-05-22T20:01:15.195Z,98923.80
2019-05-22T20:03:57.524Z,98926.67
2019-05-22T20:06:28.358Z,98933.09
2019-05-22T20:09:11.235Z,98929.53
2019-05-22T20:11:44.075Z,98931.94
2019-05-22T20:14:18.752Z,98935.89
2019-05-22T20:21:51.705Z,98925.80
2019-05-22T20:24:24.765Z,98928.32
2019-05-22T20:26:57.143Z,98923.97
2019-05-22T20:29:28.891Z,98926.56
2019-05-22T20:34:29.749Z,98937.80
2019-05-22T20:37:00.786Z,98934.00
2019-05-22T20:39:35.326Z,98934.87
2019-05-22T20:42:06.473Z,98941.16
2019-05-22T20:47:08.925Z,98944.22
2019-05-22T20:49:45.102Z,98941.16
2019-05-22T20:52:20.246Z,98952.42
2019-05-22T20:54:52.771Z,98948.05
2019-05-22T20:57:27.140Z,98958.75
2019-05-22T21:04:59.776Z,98967.50
2019-05-22T21:07:38.411Z,98966.94
2019-05-22T21:10:10.433Z,98962.84
2019-05-22T21:12:45.153Z,98964.73
2019-05-22T21:17:42.213Z,98957.16
2019-05-22T21:20:16.305Z,98959.36
2019-05-22T21:22:48.093Z,98962.84
2019-05-22T21:25:19.521Z,98960.31
2019-05-22T21:30:19.887Z,98962.84
2019-05-22T21:32:51.077Z,98964.14
2019-05-22T21:35:22.926Z,98964.14
2019-05-22T21:40:22.767Z,98966.73
2019-05-22T21:42:55.738Z,98973.15
2019-05-22T21:45:26.976Z,98970.72
2019-05-22T21:47:54.069Z,98972.12
2019-05-22T21:52:55.107Z,98974.88
2019-05-22T21:55:26.631Z,98962.81
2019-05-22T22:03:00.396Z,98975.73
2019-05-22T22:05:31.837Z,98976.20
2019-05-22T22:08:02.578Z,98977.83
2019-05-22T22:12:59.799Z,98976.00
2019-05-22T22:15:31.748Z,98988.78
2019-05-22T22:18:02.952Z,98986.69
2019-05-22T22:23:00.502Z,98984.83
2019-05-22T22:25:31.676Z,98986.13
2019-05-22T22:28:03.462Z,98988.25
2019-05-22T22:33:05.401Z,98983.80
2019-05-22T22:35:36.224Z,98982.94
2019-05-22T22:38:07.111Z,98990.60
2019-05-22T22:45:44.047Z,98992.33
2019-05-22T22:48:17.378Z,98985.22
2019-05-22T22:50:48.449Z,98991.62
2019-05-22T22:53:19.375Z,98989.83
2019-05-22T22:58:19.125Z,98999.66
2019-05-22T23:00:51.373Z,98998.03
2019-05-22T23:03:27.020Z,98996.66
2019-05-22T23:05:58.634Z,98998.76
2019-05-22T23:10:55.601Z,99001.20
2019-05-22T23:13:26.366Z,99003.08
2019-05-22T23:15:58.183Z,98998.69
2019-05-22T23:20:53.497Z,99005.48
2019-05-22T23:23:21.727Z,99010.27
2019-05-22T23:28:33.621Z,99008.41
2019-05-22T23:30:53.633Z,99016.61
2019-05-22T23:33:24.658Z,99026.55
2019-05-22T23:38:21.608Z,99022.84
2019-05-22T23:40:53.126Z,99019.03
2019-05-22T23:43:23.996Z,99023.34
2019-05-22T23:48:22.727Z,99017.66
2019-05-22T23:50:53.819Z,99023.59
2019-05-22T23:53:25.338Z,99034.83
2019-05-22T23:58:25.748Z,99026.12
